createdAt,value
2023-01-08T00:00:58.706Z,1.60
2023-01-08T00:03:26.443Z,1.40
2023-01-08T00:05:54.216Z,1.70
2023-01-08T00:08:21.825Z,1.60
2023-01-08T00:10:54.706Z,1.40
2023-01-08T00:13:22.434Z,1.30
2023-01-08T00:15:50.032Z,1.40
2023-01-08T00:18:29.968Z,1.33
2023-01-08T00:20:57.563Z,1.70
2023-01-08T00:23:25.170Z,1.37
2023-01-08T00:25:52.833Z,1.50
2023-01-08T00:28:20.352Z,1.60
2023-01-08T00:30:48.623Z,1.77
2023-01-08T00:33:16.316Z,1.60
2023-01-08T00:35:43.950Z,1.80
2023-01-08T00:38:12.144Z,1.70
2023-01-08T00:40:39.800Z,1.73
2023-01-08T00:43:07.927Z,1.67
2023-01-08T00:45:35.644Z,1.70
2023-01-08T00:48:03.216Z,1.57
2023-01-08T00:50:30.853Z,1.67
2023-01-08T00:52:58.395Z,1.83
2023-01-08T00:55:26.113Z,1.80
2023-01-08T00:57:53.612Z,1.80
2023-01-08T01:00:21.193Z,1.50
2023-01-08T01:02:48.745Z,1.80
2023-01-08T01:05:16.512Z,1.67
2023-01-08T01:07:44.468Z,1.63
2023-01-08T01:10:13.187Z,1.93
2023-01-08T01:12:42.032Z,2.17
2023-01-08T01:15:11.298Z,1.83
2023-01-08T01:17:39.490Z,1.73
2023-01-08T01:20:09.119Z,1.87
2023-01-08T01:22:36.846Z,1.90
2023-01-08T01:25:15.765Z,1.83
2023-01-08T01:27:43.392Z,1.70
2023-01-08T01:30:11.326Z,1.73
2023-01-08T01:32:38.953Z,2.00
2023-01-08T01:35:06.846Z,2.10
2023-01-08T01:37:38.492Z,1.70
2023-01-08T01:40:06.440Z,1.97
2023-01-08T01:42:34.027Z,1.97
2023-01-08T01:45:01.744Z,2.10
2023-01-08T01:47:31.518Z,1.77
2023-01-08T01:50:28.237Z,1.70
2023-01-08T01:52:59.941Z,1.70
2023-01-08T01:55:28.340Z,2.03
2023-01-08T01:58:02.037Z,1.80
2023-01-08T02:00:30.179Z,1.70
2023-01-08T02:02:57.782Z,1.57
2023-01-08T02:05:29.241Z,1.70
2023-01-08T02:07:59.649Z,1.60
2023-01-08T02:10:31.679Z,2.03
2023-01-08T02:13:01.652Z,1.97
2023-01-08T02:15:29.239Z,1.60
2023-01-08T02:17:56.697Z,1.83
2023-01-08T02:20:38.315Z,1.90
2023-01-08T02:23:05.876Z,1.90
2023-01-08T02:25:36.413Z,1.60
2023-01-08T02:28:10.079Z,1.90
2023-01-08T02:30:38.153Z,1.93
2023-01-08T02:33:05.813Z,1.90
2023-01-08T02:35:41.239Z,2.10
2023-01-08T02:38:11.038Z,1.93
2023-01-08T02:40:42.714Z,2.30
2023-01-08T02:43:12.622Z,1.93
2023-01-08T02:45:51.229Z,2.03
2023-01-08T02:48:34.192Z,1.70
2023-01-08T02:51:14.688Z,1.90
2023-01-08T02:53:44.234Z,2.00
2023-01-08T02:56:13.207Z,2.10
2023-01-08T02:58:42.142Z,1.90
2023-01-08T03:01:11.544Z,2.43
2023-01-08T03:03:41.248Z,1.90
2023-01-08T03:06:10.744Z,2.00
2023-01-08T03:08:40.734Z,2.50
2023-01-08T03:11:09.320Z,2.17
2023-01-08T03:13:42.699Z,2.30
2023-01-08T03:16:23.382Z,2.40
2023-01-08T03:18:56.711Z,2.70
2023-01-08T03:21:24.517Z,2.10
2023-01-08T03:23:54.139Z,2.10
2023-01-08T03:26:23.943Z,2.17
2023-01-08T03:28:53.498Z,2.60
2023-01-08T03:31:22.257Z,2.60
2023-01-08T03:33:50.132Z,2.27
2023-01-08T03:36:20.837Z,2.53
2023-01-08T03:38:51.084Z,2.20
2023-01-08T03:41:20.370Z,2.50
2023-01-08T03:43:47.898Z,2.60
2023-01-08T03:46:17.222Z,2.20
2023-01-08T03:48:45.216Z,2.20
2023-01-08T03:51:12.971Z,2.50
2023-01-08T03:53:40.481Z,2.30
2023-01-08T03:56:08.151Z,2.30
2023-01-08T03:58:35.633Z,2.70
2023-01-08T04:01:03.225Z,2.20
2023-01-08T04:03:30.719Z,2.50
2023-01-08T04:06:00.205Z,2.43
2023-01-08T04:08:27.783Z,2.10
2023-01-08T04:10:55.392Z,2.30
2023-01-08T04:13:22.923Z,2.50
2023-01-08T04:15:51.092Z,2.00
2023-01-08T04:18:27.923Z,2.37
2023-01-08T04:20:55.503Z,2.03
2023-01-08T04:23:23.065Z,2.30
2023-01-08T04:25:50.654Z,2.03
2023-01-08T04:28:22.228Z,2.40
2023-01-08T04:30:49.884Z,2.40
2023-01-08T04:33:17.598Z,1.90
2023-01-08T04:35:45.194Z,1.97
2023-01-08T04:38:12.739Z,2.30
2023-01-08T04:40:40.320Z,2.57
2023-01-08T04:43:07.833Z,2.07
2023-01-08T04:45:35.489Z,2.10
2023-01-08T04:48:03.061Z,1.67
2023-01-08T04:50:31.013Z,1.43
2023-01-08T04:52:59.327Z,1.70
2023-01-08T04:55:26.879Z,1.33
2023-01-08T04:57:54.388Z,1.40
2023-01-08T05:00:21.986Z,2.07
2023-01-08T05:02:49.650Z,1.50
2023-01-08T05:05:17.315Z,1.20
2023-01-08T05:07:44.906Z,1.30
2023-01-08T05:10:12.453Z,1.10
2023-01-08T05:12:39.955Z,0.97
2023-01-08T05:15:07.815Z,1.13
2023-01-08T05:17:35.322Z,0.97
2023-01-08T05:20:04.049Z,1.00
2023-01-08T05:22:31.570Z,1.10
2023-01-08T05:25:01.202Z,0.90
2023-01-08T05:27:29.185Z,0.90
2023-01-08T05:29:56.713Z,1.10
2023-01-08T05:32:24.283Z,0.90
2023-01-08T05:34:51.840Z,0.97
2023-01-08T05:37:19.409Z,0.70
2023-01-08T05:39:46.972Z,1.03
2023-01-08T05:42:14.640Z,0.80
2023-01-08T05:44:42.138Z,0.80
2023-01-08T05:47:09.790Z,0.70
2023-01-08T05:49:37.344Z,0.80
2023-01-08T05:52:04.987Z,1.07
2023-01-08T05:54:32.541Z,1.07
2023-01-08T05:57:00.192Z,1.10
2023-01-08T05:59:27.789Z,0.80
2023-01-08T06:01:55.346Z,1.03
2023-01-08T06:04:23.142Z,1.23
2023-01-08T06:06:50.733Z,1.03
2023-01-08T06:09:18.251Z,0.70
2023-01-08T06:11:45.864Z,1.10
2023-01-08T06:14:13.420Z,0.87
2023-01-08T06:16:41.072Z,1.63
2023-01-08T06:19:11.522Z,1.00
2023-01-08T06:21:39.200Z,1.10
2023-01-08T06:24:09.923Z,1.00
2023-01-08T06:26:37.534Z,1.10
2023-01-08T06:29:05.096Z,1.23
2023-01-08T06:31:32.778Z,1.20
2023-01-08T06:34:00.391Z,1.27
2023-01-08T06:36:27.998Z,1.10
2023-01-08T06:38:55.506Z,0.97
2023-01-08T06:41:23.139Z,1.07
2023-01-08T06:43:50.691Z,1.27
2023-01-08T06:46:18.296Z,1.47
2023-01-08T06:48:45.972Z,1.67
2023-01-08T06:51:13.508Z,1.20
2023-01-08T06:53:41.028Z,1.30
2023-01-08T06:56:08.946Z,1.27
2023-01-08T06:58:37.384Z,1.30
2023-01-08T07:01:05.107Z,1.60
2023-01-08T07:03:32.811Z,0.80
2023-01-08T07:06:02.848Z,1.10
2023-01-08T07:08:30.456Z,1.13
2023-01-08T07:10:58.042Z,0.90
2023-01-08T07:13:25.646Z,1.03
2023-01-08T07:15:53.211Z,1.10
2023-01-08T07:18:20.925Z,0.93
2023-01-08T07:20:51.574Z,1.00
2023-01-08T07:23:19.202Z,1.00
2023-01-08T07:25:46.747Z,1.40
2023-01-08T07:28:14.373Z,1.10
2023-01-08T07:30:42.085Z,1.00
2023-01-08T07:33:09.694Z,1.60
2023-01-08T07:35:37.318Z,0.90
2023-01-08T07:38:05.075Z,1.00
2023-01-08T07:40:32.774Z,1.00
2023-01-08T07:43:01.236Z,1.10
2023-01-08T07:45:29.534Z,1.33
2023-01-08T07:47:57.861Z,0.70
2023-01-08T07:50:25.382Z,1.40
2023-01-08T07:52:53.102Z,1.00
2023-01-08T07:55:20.705Z,1.00
2023-01-08T07:57:48.288Z,1.00
2023-01-08T08:00:15.930Z,0.97
2023-01-08T08:02:43.590Z,1.30
2023-01-08T08:05:11.253Z,0.77
2023-01-08T08:07:38.885Z,1.40
2023-01-08T08:10:06.690Z,1.23
2023-01-08T08:12:34.336Z,1.07
2023-01-08T08:15:01.952Z,1.10
2023-01-08T08:17:29.693Z,1.27
2023-01-08T08:19:57.243Z,1.20
2023-01-08T08:22:25.901Z,1.90
2023-01-08T08:24:53.446Z,1.70
2023-01-08T08:27:21.059Z,0.87
2023-01-08T08:29:48.635Z,1.37
2023-01-08T08:32:16.221Z,1.40
2023-01-08T08:34:43.859Z,1.40
2023-01-08T08:37:11.653Z,1.17
2023-01-08T08:39:39.186Z,1.20
2023-01-08T08:42:06.810Z,1.10
2023-01-08T08:44:34.318Z,1.00
2023-01-08T08:47:01.967Z,1.60
2023-01-08T08:49:29.555Z,1.40
2023-01-08T08:51:57.165Z,1.70
2023-01-08T08:54:24.728Z,2.17
2023-01-08T08:56:52.393Z,2.30
2023-01-08T08:59:19.963Z,7.77
2023-01-08T09:01:47.760Z,4.63
2023-01-08T09:04:15.324Z,4.10
2023-01-08T09:06:42.874Z,9.10
2023-01-08T09:09:10.439Z,7.13
2023-01-08T09:11:38.149Z,2.50
2023-01-08T09:14:05.762Z,2.03
2023-01-08T09:16:33.388Z,1.80
2023-01-08T09:19:00.949Z,1.77
2023-01-08T09:21:28.559Z,1.77
2023-01-08T09:23:56.113Z,2.23
2023-01-08T09:26:23.731Z,1.53
2023-01-08T09:28:51.299Z,2.03
2023-01-08T09:31:18.883Z,2.27
2023-01-08T09:33:48.103Z,1.60
2023-01-08T09:36:15.922Z,1.87
2023-01-08T09:38:43.486Z,1.97
2023-01-08T09:41:13.938Z,1.90
2023-01-08T09:43:43.313Z,1.70
2023-01-08T09:46:12.713Z,1.87
2023-01-08T09:48:41.422Z,2.00
2023-01-08T09:51:15.693Z,1.50
2023-01-08T09:53:43.785Z,2.00
2023-01-08T09:56:13.814Z,1.87
2023-01-08T09:58:44.374Z,1.53
2023-01-08T10:01:13.807Z,1.70
2023-01-08T10:03:46.221Z,1.83
2023-01-08T10:06:15.167Z,1.60
2023-01-08T10:08:43.038Z,1.40
2023-01-08T10:11:13.718Z,1.53
2023-01-08T10:13:42.403Z,1.40
2023-01-08T10:16:10.650Z,2.10
2023-01-08T10:18:49.418Z,2.03
2023-01-08T10:21:17.962Z,1.70
2023-01-08T10:23:52.969Z,1.67
2023-01-08T10:26:27.865Z,2.07
2023-01-08T10:29:16.589Z,2.27
2023-01-08T10:31:55.086Z,1.30
2023-01-08T10:34:27.282Z,1.73
2023-01-08T10:36:55.654Z,1.80
2023-01-08T10:39:30.293Z,1.37
2023-01-08T10:41:59.401Z,1.70
2023-01-08T10:44:27.000Z,1.70
2023-01-08T10:46:56.187Z,1.30
2023-01-08T10:49:39.205Z,1.60
2023-01-08T10:52:07.112Z,1.63
2023-01-08T10:54:34.715Z,1.20
2023-01-08T10:57:02.824Z,1.37
2023-01-08T10:59:30.700Z,2.10
2023-01-08T11:01:58.817Z,1.30
2023-01-08T11:04:31.385Z,2.80
2023-01-08T11:07:01.541Z,2.90
2023-01-08T11:09:34.129Z,3.70
2023-01-08T11:12:01.863Z,2.80
2023-01-08T11:14:34.191Z,2.33
2023-01-08T11:17:02.446Z,2.03
2023-01-08T11:19:31.263Z,1.30
2023-01-08T11:22:00.920Z,2.33
2023-01-08T11:24:33.537Z,1.90
2023-01-08T11:27:07.697Z,1.97
2023-01-08T11:29:39.466Z,1.57
2023-01-08T11:32:16.227Z,1.87
2023-01-08T11:34:43.825Z,1.40
2023-01-08T11:37:31.030Z,1.70
2023-01-08T11:39:58.623Z,1.43
2023-01-08T11:42:45.065Z,1.93
2023-01-08T11:45:15.534Z,1.50
2023-01-08T11:47:57.371Z,0.90
2023-01-08T11:50:27.975Z,0.70
2023-01-08T11:52:58.788Z,0.70
2023-01-08T11:55:29.477Z,0.83
2023-01-08T11:58:15.659Z,0.80
2023-01-08T12:00:55.402Z,0.70
2023-01-08T12:03:32.268Z,1.00
2023-01-08T12:06:02.743Z,0.90
2023-01-08T12:08:38.251Z,1.07
2023-01-08T12:11:15.290Z,0.60
2023-01-08T12:14:00.123Z,0.63
2023-01-08T12:16:30.882Z,0.97
2023-01-08T12:19:17.402Z,0.80
2023-01-08T12:22:07.602Z,0.90
2023-01-08T12:24:37.715Z,0.80
2023-01-08T12:27:11.009Z,0.80
2023-01-08T12:29:41.844Z,0.93
2023-01-08T12:32:24.033Z,0.90
2023-01-08T12:35:10.118Z,0.93
2023-01-08T12:37:53.226Z,1.10
2023-01-08T12:40:34.305Z,0.90
2023-01-08T12:45:49.547Z,0.87
2023-01-08T12:48:33.283Z,0.80
2023-01-08T12:51:15.194Z,1.10
2023-01-08T12:54:03.134Z,0.90
2023-01-08T12:56:49.852Z,0.90
2023-01-08T12:59:20.285Z,0.93
2023-01-08T13:01:58.675Z,0.67
2023-01-08T13:04:28.858Z,0.70
2023-01-08T13:07:06.710Z,0.83
2023-01-08T13:09:34.735Z,0.90
2023-01-08T13:12:02.808Z,0.87
2023-01-08T13:14:43.292Z,0.77
2023-01-08T13:17:19.512Z,1.03
2023-01-08T13:20:01.876Z,1.10
2023-01-08T13:22:30.870Z,1.00
2023-01-08T13:25:27.517Z,0.70
2023-01-08T13:27:55.997Z,1.10
2023-01-08T13:30:50.100Z,0.90
2023-01-08T13:33:35.979Z,0.80
2023-01-08T13:36:15.947Z,1.07
2023-01-08T13:38:47.162Z,0.90
2023-01-08T13:41:25.380Z,1.17
2023-01-08T13:44:00.757Z,0.70
2023-01-08T13:46:28.745Z,1.13
2023-01-08T13:49:10.415Z,0.80
2023-01-08T13:51:45.310Z,1.20
2023-01-08T13:54:16.984Z,0.70
2023-01-08T13:56:46.115Z,1.10
2023-01-08T13:59:25.752Z,1.30
2023-01-08T14:01:54.578Z,1.00
2023-01-08T14:04:22.812Z,1.20
2023-01-08T14:06:50.459Z,1.00
2023-01-08T14:09:25.385Z,0.80
2023-01-08T14:11:54.505Z,1.00
2023-01-08T14:14:23.240Z,0.80
2023-01-08T14:16:52.061Z,0.80
2023-01-08T14:19:21.381Z,1.10
2023-01-08T14:21:51.100Z,0.83
2023-01-08T14:24:19.797Z,0.80
2023-01-08T14:26:53.282Z,0.90
2023-01-08T14:29:22.334Z,0.90
2023-01-08T14:31:51.536Z,0.70
2023-01-08T14:34:19.751Z,0.93
2023-01-08T14:36:47.496Z,0.80
2023-01-08T14:39:24.323Z,0.90
2023-01-08T14:41:53.361Z,0.70
2023-01-08T14:44:36.347Z,0.80
2023-01-08T14:47:05.124Z,1.10
2023-01-08T14:49:34.125Z,1.03
2023-01-08T14:52:02.868Z,0.93
2023-01-08T14:54:46.068Z,0.90
2023-01-08T14:57:13.701Z,1.10
2023-01-08T14:59:41.372Z,0.80
2023-01-08T15:02:17.886Z,1.07
2023-01-08T15:04:45.641Z,0.77
2023-01-08T15:07:26.236Z,1.10
2023-01-08T15:09:58.004Z,0.80
2023-01-08T15:12:27.007Z,0.90
2023-01-08T15:14:54.596Z,0.80
2023-01-08T15:17:24.294Z,0.87
2023-01-08T15:19:55.855Z,0.87
2023-01-08T15:22:24.781Z,0.87
2023-01-08T15:24:57.429Z,1.17
2023-01-08T15:27:25.329Z,1.30
2023-01-08T15:29:54.472Z,0.90
2023-01-08T15:32:23.417Z,0.83
2023-01-08T15:34:51.054Z,1.00
2023-01-08T15:37:18.704Z,1.20
2023-01-08T15:39:46.271Z,0.80
2023-01-08T15:42:30.521Z,1.00
2023-01-08T15:44:58.279Z,1.00
2023-01-08T15:47:25.867Z,2.97
2023-01-08T15:49:53.576Z,1.13
2023-01-08T15:52:25.482Z,1.03
2023-01-08T15:54:53.084Z,0.90
2023-01-08T15:57:20.668Z,0.90
2023-01-08T15:59:48.263Z,1.30
2023-01-08T16:02:16.063Z,1.10
2023-01-08T16:04:44.078Z,1.20
2023-01-08T16:07:11.714Z,1.10
2023-01-08T16:09:40.583Z,1.20
2023-01-08T16:12:08.267Z,1.27
2023-01-08T16:14:35.888Z,1.40
2023-01-08T16:17:03.522Z,1.30
2023-01-08T16:19:32.215Z,2.20
2023-01-08T16:22:00.214Z,0.90
2023-01-08T16:24:27.931Z,1.03
2023-01-08T16:26:55.508Z,0.90
2023-01-08T16:29:23.281Z,1.00
2023-01-08T16:31:50.897Z,1.10
2023-01-08T16:34:18.774Z,1.23
2023-01-08T16:36:46.565Z,1.20
2023-01-08T16:39:14.415Z,1.20
2023-01-08T16:41:42.186Z,1.07
2023-01-08T16:44:28.352Z,1.03
2023-01-08T16:46:59.512Z,0.93
2023-01-08T16:49:28.640Z,0.90
2023-01-08T16:51:56.232Z,0.90
2023-01-08T16:54:26.456Z,1.20
2023-01-08T16:56:54.425Z,0.93
2023-01-08T16:59:24.088Z,0.90
2023-01-08T17:01:52.774Z,1.10
2023-01-08T17:04:20.711Z,1.23
2023-01-08T17:06:48.941Z,1.10
2023-01-08T17:09:18.883Z,1.30
2023-01-08T17:11:47.022Z,1.20
2023-01-08T17:14:15.003Z,1.00
2023-01-08T17:16:42.761Z,1.20
2023-01-08T17:19:10.644Z,1.00
2023-01-08T17:21:38.934Z,1.27
2023-01-08T17:24:07.155Z,0.93
2023-01-08T17:26:34.829Z,1.20
2023-01-08T17:29:02.443Z,1.13
2023-01-08T17:31:30.446Z,1.47
2023-01-08T17:33:58.071Z,1.10
2023-01-08T17:36:27.109Z,1.30
2023-01-08T17:38:54.923Z,1.20
2023-01-08T17:41:25.407Z,1.60
2023-01-08T17:43:53.153Z,1.70
2023-01-08T17:46:20.774Z,1.93
2023-01-08T17:48:48.338Z,2.00
2023-01-08T17:51:16.108Z,2.10
2023-01-08T17:53:43.884Z,1.50
2023-01-08T17:56:11.553Z,1.80
2023-01-08T17:58:39.253Z,1.70
2023-01-08T18:01:09.914Z,1.73
2023-01-08T18:03:37.912Z,1.53
2023-01-08T18:06:09.535Z,1.30
2023-01-08T18:08:41.773Z,1.50
2023-01-08T18:11:11.741Z,1.13
2023-01-08T18:13:42.555Z,1.43
2023-01-08T18:16:12.139Z,1.53
2023-01-08T18:18:40.347Z,2.17
2023-01-08T18:21:08.059Z,1.23
2023-01-08T18:23:38.765Z,1.83
2023-01-08T18:26:12.601Z,1.33
2023-01-08T18:28:41.421Z,1.50
2023-01-08T18:31:10.106Z,1.37
2023-01-08T18:33:38.035Z,1.27
2023-01-08T18:36:11.229Z,1.43
2023-01-08T18:38:40.533Z,1.40
2023-01-08T18:41:08.588Z,1.53
2023-01-08T18:43:37.838Z,1.50
2023-01-08T18:46:06.860Z,1.50
2023-01-08T18:48:34.978Z,1.70
2023-01-08T18:51:02.761Z,1.70
2023-01-08T18:53:30.404Z,1.30
2023-01-08T18:55:59.269Z,1.40
2023-01-08T18:58:27.248Z,1.63
2023-01-08T19:00:54.893Z,1.90
2023-01-08T19:03:22.534Z,2.27
2023-01-08T19:05:50.199Z,1.50
2023-01-08T19:08:17.842Z,1.70
2023-01-08T19:10:45.413Z,1.37
2023-01-08T19:13:13.071Z,1.30
2023-01-08T19:15:40.643Z,1.50
2023-01-08T19:18:08.194Z,1.90
2023-01-08T19:20:36.292Z,3.67
2023-01-08T19:23:03.855Z,4.23
2023-01-08T19:25:31.547Z,1.90
2023-01-08T19:27:59.174Z,2.23
2023-01-08T19:30:27.722Z,1.93
2023-01-08T19:32:55.261Z,2.33
2023-01-08T19:35:23.052Z,3.80
2023-01-08T19:37:52.768Z,3.20
2023-01-08T19:40:20.401Z,2.30
2023-01-08T19:42:49.433Z,1.80
2023-01-08T19:45:18.556Z,6.90
2023-01-08T19:47:46.960Z,1.90
2023-01-08T19:50:14.557Z,4.03
2023-01-08T19:52:42.180Z,2.47
2023-01-08T19:55:09.987Z,2.20
2023-01-08T19:57:37.609Z,2.50
2023-01-08T20:00:05.531Z,2.83
2023-01-08T20:02:33.541Z,2.10
2023-01-08T20:05:01.560Z,2.13
2023-01-08T20:07:29.193Z,2.30
2023-01-08T20:09:56.911Z,2.70
2023-01-08T20:12:24.741Z,2.50
2023-01-08T20:14:52.353Z,1.90
2023-01-08T20:17:20.115Z,2.43
2023-01-08T20:19:50.033Z,2.27
2023-01-08T20:22:18.061Z,2.23
2023-01-08T20:24:46.375Z,2.00
2023-01-08T20:27:13.985Z,1.70
2023-01-08T20:29:41.691Z,2.13
2023-01-08T20:32:09.333Z,1.27
2023-01-08T20:34:36.982Z,2.30
2023-01-08T20:37:05.338Z,2.37
2023-01-08T20:39:32.950Z,1.33
2023-01-08T20:42:04.629Z,1.40
2023-01-08T20:44:33.346Z,2.07
2023-01-08T20:47:01.617Z,1.57
2023-01-08T20:49:29.642Z,1.87
2023-01-08T20:51:59.805Z,1.60
2023-01-08T20:54:29.474Z,1.77
2023-01-08T20:56:57.645Z,1.90
2023-01-08T20:59:25.305Z,1.40
2023-01-08T21:01:53.071Z,2.50
2023-01-08T21:04:21.213Z,2.00
2023-01-08T21:06:49.303Z,3.23
2023-01-08T21:09:17.130Z,3.23
2023-01-08T21:11:44.789Z,2.00
2023-01-08T21:14:12.499Z,4.00
2023-01-08T21:16:40.510Z,4.57
2023-01-08T21:19:08.349Z,1.63
2023-01-08T21:21:39.058Z,4.00
2023-01-08T21:24:09.665Z,4.43
2023-01-08T21:26:37.662Z,2.77
2023-01-08T21:29:06.208Z,1.63
2023-01-08T21:31:34.896Z,1.53
2023-01-08T21:34:03.347Z,1.90
2023-01-08T21:36:31.800Z,1.50
2023-01-08T21:39:00.258Z,1.30
2023-01-08T21:41:29.231Z,1.50
2023-01-08T21:43:56.831Z,1.37
2023-01-08T21:46:26.098Z,1.57
2023-01-08T21:48:53.644Z,1.67
2023-01-08T21:51:21.312Z,1.40
2023-01-08T21:53:53.946Z,1.50
2023-01-08T21:56:21.546Z,1.70
2023-01-08T21:58:49.091Z,2.03
2023-01-08T22:01:16.800Z,1.33
2023-01-08T22:03:44.522Z,1.60
2023-01-08T22:06:12.323Z,1.40
2023-01-08T22:08:39.956Z,1.30
2023-01-08T22:11:08.413Z,1.50
2023-01-08T22:13:36.683Z,1.53
2023-01-08T22:16:05.318Z,1.73
2023-01-08T22:18:32.950Z,1.30
2023-01-08T22:21:07.730Z,2.00
2023-01-08T22:23:38.508Z,1.40
2023-01-08T22:26:10.533Z,1.57
2023-01-08T22:28:38.443Z,1.57
2023-01-08T22:31:09.963Z,1.83
2023-01-08T22:33:38.085Z,1.40
2023-01-08T22:36:06.331Z,1.60
2023-01-08T22:38:34.065Z,1.50
2023-01-08T22:41:01.779Z,1.80
2023-01-08T22:43:29.424Z,1.70
2023-01-08T22:45:58.279Z,1.90
2023-01-08T22:48:26.715Z,1.87
2023-01-08T22:50:54.279Z,1.60
2023-01-08T22:53:21.980Z,1.87
2023-01-08T22:55:49.621Z,1.50
2023-01-08T22:58:17.568Z,1.80
2023-01-08T23:01:03.758Z,1.47
2023-01-08T23:03:31.360Z,1.60
2023-01-08T23:06:02.615Z,1.80
2023-01-08T23:08:30.278Z,1.73
2023-01-08T23:11:00.640Z,1.77
2023-01-08T23:13:28.225Z,1.53
2023-01-08T23:15:55.736Z,1.40
2023-01-08T23:18:23.377Z,1.70
2023-01-08T23:20:51.021Z,1.50
2023-01-08T23:23:18.624Z,1.80
2023-01-08T23:25:46.200Z,1.47
2023-01-08T23:28:13.793Z,1.73
2023-01-08T23:30:41.946Z,1.90
2023-01-08T23:33:09.484Z,2.13
2023-01-08T23:35:58.589Z,2.97
2023-01-08T23:38:26.257Z,2.43
2023-01-08T23:40:53.790Z,2.20
2023-01-08T23:43:21.387Z,2.17
2023-01-08T23:45:50.267Z,1.87
2023-01-08T23:48:18.101Z,1.40
2023-01-08T23:50:45.617Z,1.23
2023-01-08T23:53:13.285Z,0.90
2023-01-08T23:55:40.789Z,1.00
2023-01-08T23:58:08.396Z,1.20
